createdAt,value
2019-02-25T00:01:56.430Z,38.90
2019-02-25T00:04:25.352Z,37.73
2019-02-25T00:06:54.035Z,36.47
2019-02-25T00:09:23.054Z,41.03
2019-02-25T00:11:51.706Z,37.67
2019-02-25T00:14:20.347Z,46.67
2019-02-25T00:16:48.994Z,39.70
2019-02-25T00:19:17.816Z,37.03
2019-02-25T00:21:46.667Z,38.93
2019-02-25T00:24:16.042Z,36.60
2019-02-25T00:26:44.710Z,35.47
2019-02-25T00:29:13.339Z,38.40
2019-02-25T00:31:42.354Z,38.33
2019-02-25T00:34:11.001Z,34.10
2019-02-25T00:36:39.648Z,41.27
2019-02-25T00:39:08.606Z,30.00
2019-02-25T00:41:37.686Z,36.00
2019-02-25T00:44:06.903Z,36.40
2019-02-25T00:46:35.578Z,39.87
2019-02-25T00:49:04.430Z,32.57
2019-02-25T00:51:33.612Z,40.00
2019-02-25T00:54:02.149Z,35.07
2019-02-25T00:56:31.463Z,34.77
2019-02-25T00:59:00.106Z,34.40
2019-02-25T01:01:28.751Z,35.27
2019-02-25T01:03:57.588Z,35.00
2019-02-25T01:06:26.223Z,39.23
2019-02-25T01:08:55.431Z,40.73
2019-02-25T01:11:24.090Z,45.67
2019-02-25T01:13:52.722Z,41.50
2019-02-25T01:16:21.739Z,42.53
2019-02-25T01:18:50.387Z,36.47
2019-02-25T01:21:19.310Z,41.03
2019-02-25T01:23:48.947Z,37.90
2019-02-25T01:26:17.894Z,32.43
2019-02-25T01:28:46.892Z,31.93
2019-02-25T01:31:15.539Z,37.47
2019-02-25T01:33:44.555Z,35.73
2019-02-25T01:36:13.210Z,40.10
2019-02-25T01:38:41.858Z,41.03
2019-02-25T01:41:10.663Z,33.13
2019-02-25T01:43:39.095Z,32.93
2019-02-25T01:46:08.322Z,36.77
2019-02-25T01:48:37.005Z,35.20
2019-02-25T01:51:05.816Z,36.40
2019-02-25T01:53:34.656Z,35.50
2019-02-25T01:56:03.296Z,35.53
2019-02-25T01:58:32.290Z,35.00
2019-02-25T02:01:01.338Z,38.03
2019-02-25T02:03:30.176Z,36.27
2019-02-25T02:05:58.819Z,37.20
2019-02-25T02:08:27.832Z,34.63
2019-02-25T02:10:56.494Z,37.30
2019-02-25T02:13:25.306Z,33.17
2019-02-25T02:15:54.228Z,37.07
2019-02-25T02:18:22.983Z,33.87
2019-02-25T02:20:51.907Z,34.27
2019-02-25T02:23:20.657Z,36.63
2019-02-25T02:25:49.479Z,31.97
2019-02-25T02:28:18.420Z,31.37
2019-02-25T02:30:47.178Z,33.93
2019-02-25T02:33:16.007Z,33.03
2019-02-25T02:35:44.810Z,33.80
2019-02-25T02:38:13.459Z,31.60
2019-02-25T02:40:42.090Z,35.80
2019-02-25T02:43:10.750Z,33.10
2019-02-25T02:45:44.543Z,30.93
2019-02-25T02:48:14.842Z,35.70
2019-02-25T02:50:43.887Z,33.73
2019-02-25T02:53:12.920Z,31.73
2019-02-25T02:55:41.577Z,33.23
2019-02-25T02:58:10.208Z,36.00
2019-02-25T03:00:39.223Z,31.47
2019-02-25T03:03:08.084Z,33.83
2019-02-25T03:05:37.182Z,33.13
2019-02-25T03:08:06.029Z,32.03
2019-02-25T03:10:34.810Z,37.37
2019-02-25T03:13:03.640Z,36.27
2019-02-25T03:15:31.961Z,34.37
2019-02-25T03:18:00.690Z,35.73
2019-02-25T03:20:29.595Z,33.23
2019-02-25T03:22:58.908Z,35.67
2019-02-25T03:25:27.567Z,32.30
2019-02-25T03:27:56.206Z,35.13
2019-02-25T03:30:24.859Z,32.13
2019-02-25T03:32:54.044Z,40.63
2019-02-25T03:35:22.715Z,35.23
2019-02-25T03:37:51.342Z,39.73
2019-02-25T03:40:20.661Z,33.13
2019-02-25T03:42:49.723Z,38.00
2019-02-25T03:45:18.905Z,31.97
2019-02-25T03:47:48.419Z,38.03
2019-02-25T03:50:17.464Z,35.33
2019-02-25T03:52:46.493Z,36.17
2019-02-25T03:55:15.804Z,31.20
2019-02-25T03:57:44.557Z,32.90
2019-02-25T04:00:22.747Z,37.00
2019-02-25T04:02:51.520Z,32.97
2019-02-25T04:05:20.303Z,35.40
2019-02-25T04:07:49.504Z,34.73
2019-02-25T04:10:18.543Z,33.57
2019-02-25T04:12:47.570Z,37.87
2019-02-25T04:15:19.676Z,37.67
2019-02-25T04:17:48.779Z,36.20
2019-02-25T04:20:17.751Z,29.83
2019-02-25T04:22:46.494Z,32.87
2019-02-25T04:25:15.292Z,34.97
2019-02-25T04:27:43.935Z,36.23
2019-02-25T04:30:13.592Z,32.70
2019-02-25T04:32:42.392Z,35.87
2019-02-25T04:35:11.707Z,35.43
2019-02-25T04:37:40.462Z,40.10
2019-02-25T04:40:09.917Z,36.60
2019-02-25T04:42:39.265Z,37.27
2019-02-25T04:45:09.437Z,39.47
2019-02-25T04:47:38.505Z,38.07
2019-02-25T04:50:07.810Z,40.20
2019-02-25T04:52:36.603Z,42.73
2019-02-25T04:55:05.321Z,33.73
2019-02-25T04:57:34.054Z,37.23
2019-02-25T05:00:03.468Z,34.43
2019-02-25T05:02:32.210Z,46.57
2019-02-25T05:05:01.123Z,44.70
2019-02-25T05:07:30.160Z,40.03
2019-02-25T05:09:58.804Z,43.30
2019-02-25T05:12:28.012Z,38.53
2019-02-25T05:14:56.478Z,39.77
2019-02-25T05:17:25.285Z,44.47
2019-02-25T05:19:53.959Z,40.27
2019-02-25T05:22:22.817Z,39.33
2019-02-25T05:24:51.419Z,43.23
2019-02-25T05:27:20.102Z,34.17
2019-02-25T05:29:49.074Z,38.33
2019-02-25T05:32:17.750Z,38.23
2019-02-25T05:34:46.568Z,41.70
2019-02-25T05:37:15.563Z,35.17
2019-02-25T05:39:44.261Z,45.70
2019-02-25T05:42:13.059Z,35.93
2019-02-25T05:44:41.714Z,36.83
2019-02-25T05:47:10.531Z,39.70
2019-02-25T05:49:39.182Z,35.53
2019-02-25T05:52:08.011Z,32.67
2019-02-25T05:54:36.677Z,38.00
2019-02-25T05:57:05.837Z,38.97
2019-02-25T05:59:35.056Z,34.07
2019-02-25T06:02:05.432Z,34.23
2019-02-25T06:04:34.318Z,34.00
2019-02-25T06:07:03.207Z,36.50
2019-02-25T06:09:32.363Z,34.37
2019-02-25T06:12:01.219Z,31.47
2019-02-25T06:14:29.839Z,33.70
2019-02-25T06:16:58.487Z,33.97
2019-02-25T06:19:27.105Z,34.63
2019-02-25T06:21:56.322Z,39.40
2019-02-25T06:24:24.990Z,33.93
2019-02-25T06:26:53.999Z,36.10
2019-02-25T06:29:22.656Z,32.67
2019-02-25T06:31:51.283Z,38.93
2019-02-25T06:34:20.120Z,32.33
2019-02-25T06:36:49.159Z,34.60
2019-02-25T06:39:17.835Z,33.67
2019-02-25T06:41:46.222Z,36.33
2019-02-25T06:44:14.547Z,34.80
2019-02-25T06:46:43.309Z,40.90
2019-02-25T06:49:11.630Z,39.80
2019-02-25T06:51:40.365Z,39.73
2019-02-25T06:54:09.394Z,35.10
2019-02-25T06:56:38.050Z,41.83
2019-02-25T06:59:06.689Z,41.87
2019-02-25T07:01:35.791Z,41.57
2019-02-25T07:04:38.827Z,40.67
2019-02-25T07:07:19.975Z,38.87
2019-02-25T07:10:05.482Z,43.20
2019-02-25T07:12:50.014Z,41.50
2019-02-25T07:15:26.488Z,41.17
2019-02-25T07:18:29.077Z,41.17
2019-02-25T07:21:31.487Z,43.97
2019-02-25T07:24:10.886Z,43.40
2019-02-25T07:27:03.967Z,54.50
2019-02-25T07:29:54.279Z,42.87
2019-02-25T07:32:40.337Z,40.80
2019-02-25T07:35:33.888Z,42.67
2019-02-25T07:38:20.171Z,48.30
2019-02-25T07:41:16.688Z,47.17
2019-02-25T07:44:22.107Z,39.07
2019-02-25T07:47:09.424Z,42.07
2019-02-25T07:50:11.983Z,51.77
2019-02-25T07:52:54.639Z,48.43
2019-02-25T07:55:47.711Z,45.60
2019-02-25T07:58:21.819Z,48.60
2019-02-25T08:00:54.980Z,48.90
2019-02-25T08:03:48.310Z,49.57
2019-02-25T08:06:38.315Z,47.93
2019-02-25T08:09:26.782Z,49.00
2019-02-25T08:12:18.631Z,54.20
2019-02-25T08:15:04.811Z,49.20
2019-02-25T08:17:55.073Z,50.13
2019-02-25T08:20:57.306Z,48.73
2019-02-25T08:23:36.132Z,54.57
2019-02-25T08:26:33.524Z,53.23
2019-02-25T08:29:23.531Z,48.60
2019-02-25T08:32:16.923Z,52.33
2019-02-25T08:35:02.750Z,50.13
2019-02-25T08:38:16.879Z,48.30
2019-02-25T08:41:14.646Z,55.90
2019-02-25T08:43:51.975Z,57.80
2019-02-25T08:46:48.303Z,54.13
2019-02-25T08:49:26.254Z,54.53
2019-02-25T08:51:54.607Z,56.07
2019-02-25T08:54:22.942Z,60.53
2019-02-25T08:56:51.325Z,49.37
2019-02-25T08:59:19.759Z,55.47
2019-02-25T09:01:48.179Z,53.83
2019-02-25T09:04:16.517Z,52.57
2019-02-25T09:06:44.848Z,54.07
2019-02-25T09:09:13.290Z,56.47
2019-02-25T09:11:41.777Z,61.77
2019-02-25T09:14:10.134Z,56.07
2019-02-25T09:16:38.448Z,52.83
2019-02-25T09:19:06.885Z,53.77
2019-02-25T09:21:35.318Z,58.37
2019-02-25T09:24:03.734Z,57.93
2019-02-25T09:26:32.070Z,59.33
2019-02-25T09:29:00.537Z,53.47
2019-02-25T09:31:28.947Z,56.93
2019-02-25T09:33:57.499Z,56.90
2019-02-25T09:36:26.083Z,53.10
2019-02-25T09:38:56.557Z,54.13
2019-02-25T09:41:29.941Z,47.90
2019-02-25T09:43:54.708Z,54.83
2019-02-25T09:46:23.178Z,57.10
2019-02-25T09:48:51.517Z,50.53
2019-02-25T09:51:19.862Z,44.77
2019-02-25T09:53:48.198Z,45.63
2019-02-25T09:56:16.529Z,52.03
2019-02-25T09:58:44.865Z,50.53
2019-02-25T10:01:13.327Z,46.70
2019-02-25T10:03:41.651Z,47.13
2019-02-25T10:06:09.969Z,46.37
2019-02-25T10:08:38.283Z,51.00
2019-02-25T10:11:06.717Z,41.13
2019-02-25T10:13:35.120Z,44.03
2019-02-25T10:16:03.475Z,45.13
2019-02-25T10:18:31.826Z,41.97
2019-02-25T10:21:00.158Z,42.97
2019-02-25T10:23:28.492Z,42.73
2019-02-25T10:25:56.825Z,39.07
2019-02-25T10:28:25.138Z,48.97
2019-02-25T10:30:53.456Z,45.90
2019-02-25T10:33:21.813Z,43.63
2019-02-25T10:35:50.178Z,48.07
2019-02-25T10:38:19.552Z,44.63
2019-02-25T10:40:49.536Z,50.10
2019-02-25T10:43:18.575Z,45.67
2019-02-25T10:45:46.937Z,55.67
2019-02-25T10:48:17.277Z,43.57
2019-02-25T10:50:45.447Z,46.20
2019-02-25T10:53:15.606Z,44.87
2019-02-25T10:55:47.285Z,42.93
2019-02-25T10:58:16.496Z,43.43
2019-02-25T11:00:46.072Z,40.10
2019-02-25T11:03:15.309Z,40.80
2019-02-25T11:05:44.757Z,46.87
2019-02-25T11:08:15.524Z,42.83
2019-02-25T11:10:48.721Z,41.20
2019-02-25T11:13:17.820Z,48.80
2019-02-25T11:15:48.136Z,40.20
2019-02-25T11:18:19.183Z,43.63
2019-02-25T11:20:46.169Z,50.20
2019-02-25T11:23:15.516Z,48.73
2019-02-25T11:25:44.598Z,40.93
2019-02-25T11:28:24.808Z,35.97
2019-02-25T11:30:44.880Z,41.53
2019-02-25T11:33:13.040Z,40.33
2019-02-25T11:35:43.236Z,40.43
2019-02-25T11:38:11.588Z,42.37
2019-02-25T11:40:39.921Z,49.10
2019-02-25T11:43:10.131Z,48.73
2019-02-25T11:45:38.264Z,37.63
2019-02-25T11:48:06.766Z,38.37
2019-02-25T11:50:35.159Z,61.20
2019-02-25T11:53:03.546Z,48.47
2019-02-25T11:55:31.897Z,47.23
2019-02-25T11:58:00.275Z,37.50
2019-02-25T12:00:28.630Z,35.43
2019-02-25T12:02:57.115Z,32.83
2019-02-25T12:05:25.487Z,37.10
2019-02-25T12:07:53.937Z,32.73
2019-02-25T12:10:22.442Z,35.47
2019-02-25T12:12:50.916Z,44.60
2019-02-25T12:15:19.261Z,38.33
2019-02-25T12:17:47.733Z,40.00
2019-02-25T12:20:16.288Z,34.67
2019-02-25T12:22:44.786Z,34.03
2019-02-25T12:25:13.714Z,32.87
2019-02-25T12:27:42.043Z,31.77
2019-02-25T12:30:12.327Z,36.30
2019-02-25T12:32:40.695Z,34.00
2019-02-25T12:35:09.931Z,32.97
2019-02-25T12:37:38.375Z,29.73
2019-02-25T12:40:07.183Z,32.87
2019-02-25T12:42:35.811Z,31.53
2019-02-25T12:45:04.407Z,32.60
2019-02-25T12:47:32.753Z,32.70
2019-02-25T12:50:01.116Z,33.53
2019-02-25T12:52:29.453Z,39.67
2019-02-25T12:54:57.838Z,31.13
2019-02-25T12:57:26.257Z,33.17
2019-02-25T12:59:54.598Z,33.77
2019-02-25T13:02:22.935Z,29.83
2019-02-25T13:04:51.287Z,36.33
2019-02-25T13:07:19.635Z,32.77
2019-02-25T13:09:47.986Z,35.27
2019-02-25T13:12:16.350Z,34.00
2019-02-25T13:14:44.819Z,37.23
2019-02-25T13:17:13.187Z,31.93
2019-02-25T13:19:41.526Z,34.67
2019-02-25T13:22:09.905Z,33.27
2019-02-25T13:24:39.524Z,31.20
2019-02-25T13:27:09.120Z,30.40
2019-02-25T13:29:38.286Z,35.77
2019-02-25T13:32:06.645Z,32.73
2019-02-25T13:34:35.034Z,33.67
2019-02-25T13:37:03.886Z,36.47
2019-02-25T13:39:32.276Z,31.07
2019-02-25T13:42:00.603Z,31.30
2019-02-25T13:44:28.971Z,27.37
2019-02-25T13:46:57.333Z,28.43
2019-02-25T13:49:25.703Z,32.37
2019-02-25T13:51:54.144Z,29.70
2019-02-25T13:54:22.483Z,35.80
2019-02-25T13:56:51.218Z,34.90
2019-02-25T13:59:19.611Z,38.97
2019-02-25T14:01:48.080Z,35.03
2019-02-25T14:04:16.403Z,30.33
2019-02-25T14:06:44.730Z,37.03
2019-02-25T14:09:13.179Z,37.63
2019-02-25T14:11:41.544Z,32.30
2019-02-25T14:14:10.523Z,32.63
2019-02-25T14:16:38.965Z,34.77
2019-02-25T14:19:07.374Z,37.17
2019-02-25T14:21:36.474Z,35.53
2019-02-25T14:24:05.008Z,30.77
2019-02-25T14:26:33.343Z,29.80
2019-02-25T14:29:02.110Z,30.67
2019-02-25T14:31:30.474Z,29.73
2019-02-25T14:33:58.815Z,31.10
2019-02-25T14:36:28.323Z,27.17
2019-02-25T14:38:59.491Z,30.30
2019-02-25T14:41:27.004Z,31.57
2019-02-25T14:43:56.703Z,31.23
2019-02-25T14:46:26.825Z,29.23
2019-02-25T14:48:55.607Z,31.83
2019-02-25T14:51:23.978Z,29.93
2019-02-25T14:53:54.750Z,35.67
2019-02-25T14:56:22.299Z,30.97
2019-02-25T14:58:51.046Z,30.83
2019-02-25T15:01:20.994Z,31.07
2019-02-25T15:03:49.519Z,33.80
2019-02-25T15:06:18.065Z,36.20
2019-02-25T15:08:46.472Z,31.37
2019-02-25T15:11:14.962Z,33.93
2019-02-25T15:13:43.914Z,34.63
2019-02-25T15:16:12.292Z,38.00
2019-02-25T15:18:40.772Z,29.80
2019-02-25T15:21:11.159Z,31.23
2019-02-25T15:23:39.480Z,30.90
2019-02-25T15:26:07.969Z,30.97
2019-02-25T15:28:36.811Z,34.83
2019-02-25T15:31:06.963Z,33.07
2019-02-25T15:33:36.258Z,35.83
2019-02-25T15:36:05.914Z,35.63
2019-02-25T15:38:34.898Z,27.70
2019-02-25T15:41:06.677Z,35.73
2019-02-25T15:43:34.637Z,34.33
2019-02-25T15:46:03.104Z,30.17
2019-02-25T15:48:32.851Z,33.80
2019-02-25T15:51:01.550Z,34.97
2019-02-25T15:53:30.112Z,29.13
2019-02-25T15:56:01.109Z,30.93
2019-02-25T15:58:28.833Z,31.67
2019-02-25T16:00:57.159Z,34.67
2019-02-25T16:03:25.927Z,29.27
2019-02-25T16:05:57.182Z,27.23
2019-02-25T16:08:26.034Z,37.37
2019-02-25T16:10:55.786Z,29.53
2019-02-25T16:13:24.567Z,31.40
2019-02-25T16:15:52.947Z,30.00
2019-02-25T16:18:22.118Z,27.97
2019-02-25T16:20:50.485Z,29.10
2019-02-25T16:23:20.133Z,26.47
2019-02-25T16:25:50.531Z,27.33
2019-02-25T16:28:18.891Z,31.80
2019-02-25T16:30:48.678Z,26.50
2019-02-25T16:33:17.235Z,26.80
2019-02-25T16:35:46.256Z,28.63
2019-02-25T16:38:14.970Z,25.37
2019-02-25T16:40:43.427Z,30.50
2019-02-25T16:43:12.633Z,25.07
2019-02-25T16:45:43.939Z,28.57
2019-02-25T16:48:11.798Z,28.00
2019-02-25T16:50:43.732Z,30.83
2019-02-25T16:53:14.841Z,30.87
2019-02-25T16:55:42.770Z,32.83
2019-02-25T16:58:13.339Z,27.17
2019-02-25T17:00:41.894Z,30.17
2019-02-25T17:03:11.162Z,31.93
2019-02-25T17:05:42.861Z,30.40
2019-02-25T17:08:12.866Z,28.03
2019-02-25T17:10:41.290Z,32.63
2019-02-25T17:13:10.427Z,30.53
2019-02-25T17:15:39.798Z,28.87
2019-02-25T17:18:08.814Z,30.67
2019-02-25T17:20:37.202Z,31.53
2019-02-25T17:23:09.489Z,29.90
2019-02-25T17:25:36.221Z,28.50
2019-02-25T17:28:07.615Z,29.67
2019-02-25T17:30:35.860Z,25.37
2019-02-25T17:33:09.987Z,31.13
2019-02-25T17:35:39.099Z,31.63
2019-02-25T17:38:07.456Z,32.60
2019-02-25T17:40:35.810Z,32.27
2019-02-25T17:43:04.143Z,32.03
2019-02-25T17:45:34.388Z,29.70
2019-02-25T17:48:05.439Z,34.73
2019-02-25T17:50:34.825Z,29.07
2019-02-25T17:53:03.021Z,28.97
2019-02-25T17:55:33.879Z,29.93
2019-02-25T17:58:02.158Z,32.10
2019-02-25T18:00:41.731Z,31.27
2019-02-25T18:03:09.099Z,29.10
2019-02-25T18:05:40.068Z,34.97
2019-02-25T18:08:10.600Z,34.37
2019-02-25T18:10:38.883Z,31.70
2019-02-25T18:13:08.663Z,32.10
2019-02-25T18:15:37.331Z,33.47
2019-02-25T18:18:09.196Z,35.80
2019-02-25T18:20:36.626Z,32.43
2019-02-25T18:23:06.126Z,33.17
2019-02-25T18:25:34.666Z,34.80
2019-02-25T18:28:04.444Z,37.97
2019-02-25T18:30:33.931Z,36.80
2019-02-25T18:33:05.089Z,30.07
2019-02-25T18:35:34.542Z,34.73
2019-02-25T18:38:04.679Z,39.40
2019-02-25T18:40:33.470Z,31.90
2019-02-25T18:43:04.374Z,36.97
2019-02-25T18:45:33.377Z,29.73
2019-02-25T18:48:03.398Z,35.27
2019-02-25T18:50:32.460Z,34.37
2019-02-25T18:53:01.492Z,38.67
2019-02-25T18:55:32.093Z,37.50
2019-02-25T18:58:01.047Z,35.13
2019-02-25T19:00:34.352Z,40.00
2019-02-25T19:03:04.806Z,36.30
2019-02-25T19:05:34.066Z,35.47
2019-02-25T19:08:03.436Z,37.03
2019-02-25T19:10:32.252Z,35.10
2019-02-25T19:13:01.205Z,39.10
2019-02-25T19:15:30.011Z,35.07
2019-02-25T19:17:59.139Z,36.47
2019-02-25T19:20:28.212Z,37.07
2019-02-25T19:23:00.510Z,35.67
2019-02-25T19:25:27.978Z,37.13
2019-02-25T19:27:58.606Z,35.63
2019-02-25T19:30:27.872Z,40.27
2019-02-25T19:32:57.896Z,37.40
2019-02-25T19:35:28.681Z,36.00
2019-02-25T19:37:57.307Z,40.13
2019-02-25T19:40:28.200Z,37.70
2019-02-25T19:42:58.806Z,37.87
2019-02-25T19:45:27.948Z,34.27
2019-02-25T19:47:58.324Z,38.33
2019-02-25T19:50:29.575Z,41.83
2019-02-25T19:53:02.481Z,39.10
2019-02-25T19:55:29.776Z,39.03
2019-02-25T19:57:59.379Z,37.73
2019-02-25T20:00:30.590Z,39.83
2019-02-25T20:03:05.531Z,36.97
2019-02-25T20:05:30.514Z,36.13
2019-02-25T20:07:59.951Z,36.90
2019-02-25T20:10:30.666Z,35.60
2019-02-25T20:13:00.682Z,41.23
2019-02-25T20:15:30.083Z,36.20
2019-02-25T20:17:59.748Z,43.37
2019-02-25T20:20:36.090Z,39.00
2019-02-25T20:23:06.170Z,41.97
2019-02-25T20:25:36.286Z,39.17
2019-02-25T20:28:05.618Z,33.43
2019-02-25T20:30:34.977Z,35.90
2019-02-25T20:33:06.336Z,33.63
2019-02-25T20:35:34.687Z,36.77
2019-02-25T20:38:05.166Z,34.33
2019-02-25T20:40:35.045Z,42.00
2019-02-25T20:43:04.746Z,46.27
2019-02-25T20:45:35.428Z,39.73
2019-02-25T20:48:05.528Z,41.17
2019-02-25T20:50:35.135Z,39.20
2019-02-25T20:53:06.448Z,41.30
2019-02-25T20:55:36.370Z,42.23
2019-02-25T20:58:06.195Z,52.97
2019-02-25T21:00:39.043Z,39.23
2019-02-25T21:03:06.353Z,39.43
2019-02-25T21:05:35.866Z,39.30
2019-02-25T21:08:05.115Z,43.17
2019-02-25T21:10:35.642Z,41.33
2019-02-25T21:13:05.410Z,38.13
2019-02-25T21:15:36.396Z,44.37
2019-02-25T21:18:07.650Z,39.20
2019-02-25T21:20:36.075Z,43.33
2019-02-25T21:23:07.342Z,41.17
2019-02-25T21:25:38.504Z,41.33
2019-02-25T21:28:08.828Z,41.67
2019-02-25T21:30:40.965Z,36.83
2019-02-25T21:33:07.719Z,38.30
2019-02-25T21:35:38.031Z,38.47
2019-02-25T21:38:06.922Z,41.33
2019-02-25T21:40:35.744Z,35.77
2019-02-25T21:43:04.556Z,42.67
2019-02-25T21:45:33.392Z,38.77
2019-02-25T21:48:04.961Z,38.53
2019-02-25T21:50:34.015Z,42.03
2019-02-25T21:53:04.921Z,39.20
2019-02-25T21:55:34.942Z,36.73
2019-02-25T21:58:04.892Z,35.70
2019-02-25T22:00:35.797Z,40.77
2019-02-25T22:03:08.226Z,38.67
2019-02-25T22:05:35.463Z,36.20
2019-02-25T22:08:04.641Z,37.00
2019-02-25T22:10:36.330Z,45.17
2019-02-25T22:13:06.746Z,38.63
2019-02-25T22:15:34.535Z,40.53
2019-02-25T22:18:06.087Z,41.23
2019-02-25T22:20:37.653Z,37.83
2019-02-25T22:23:05.769Z,38.37
2019-02-25T22:25:35.200Z,40.03
2019-02-25T22:28:05.363Z,47.93
2019-02-25T22:30:34.774Z,44.57
2019-02-25T22:33:04.890Z,38.53
2019-02-25T22:35:37.395Z,41.87
2019-02-25T22:38:05.430Z,39.00
2019-02-25T22:40:36.615Z,39.27
2019-02-25T22:43:05.222Z,44.63
2019-02-25T22:45:35.945Z,37.40
2019-02-25T22:48:05.242Z,40.97
2019-02-25T22:50:35.664Z,40.03
2019-02-25T22:53:06.177Z,38.77
2019-02-25T22:55:39.236Z,40.20
2019-02-25T22:58:06.624Z,38.30
2019-02-25T23:01:02.438Z,34.73
2019-02-25T23:03:31.074Z,34.67
2019-02-25T23:06:00.498Z,39.23
2019-02-25T23:08:29.831Z,36.67
2019-02-25T23:10:58.610Z,35.07
2019-02-25T23:13:29.322Z,37.43
2019-02-25T23:15:57.630Z,39.87
2019-02-25T23:18:28.051Z,36.77
2019-02-25T23:20:59.765Z,41.17
2019-02-25T23:23:28.694Z,45.97
2019-02-25T23:25:58.442Z,42.60
2019-02-25T23:28:28.645Z,42.13
2019-02-25T23:30:58.659Z,45.73
2019-02-25T23:33:27.711Z,46.50
2019-02-25T23:35:56.726Z,36.30
2019-02-25T23:38:25.379Z,40.03
2019-02-25T23:40:54.017Z,40.37
2019-02-25T23:43:22.646Z,40.17
2019-02-25T23:45:51.478Z,38.27
2019-02-25T23:48:20.131Z,40.93
2019-02-25T23:50:50.309Z,42.07
2019-02-25T23:53:18.970Z,38.20
2019-02-25T23:55:49.470Z,37.90
2019-02-25T23:58:19.629Z,39.93
